sensor_id;sensor_type;location;lat;lon;timestamp;pressure;altitude;pressure_sealevel;temperature;humidity
9035;BME280;4552;43.422;24.592;2023-07-22T00:27:57;99631.34;;;24.88;86.00
9035;BME280;4552;43.422;24.592;2023-07-22T00:30:24;99613.06;;;24.82;86.33
9035;BME280;4552;43.422;24.592;2023-07-22T00:32:51;99613.97;;;24.70;86.50
9035;BME280;4552;43.422;24.592;2023-07-22T00:35:18;99630.16;;;24.68;86.35
9035;BME280;4552;43.422;24.592;2023-07-22T00:37:45;99663.84;;;24.94;85.91
9035;BME280;4552;43.422;24.592;2023-07-22T00:40:15;99688.66;;;24.62;88.24
9035;BME280;4552;43.422;24.592;2023-07-22T00:42:43;99697.53;;;24.39;90.28
9035;BME280;4552;43.422;24.592;2023-07-22T00:45:11;99699.41;;;24.26;91.29
9035;BME280;4552;43.422;24.592;2023-07-22T01:11:13;99726.53;;;24.09;93.71
9035;BME280;4552;43.422;24.592;2023-07-22T01:13:40;99721.81;;;24.12;94.32
9035;BME280;4552;43.422;24.592;2023-07-22T01:16:07;99709.38;;;24.24;93.08
9035;BME280;4552;43.422;24.592;2023-07-22T01:25:19;99730.13;;;24.20;93.55
9035;BME280;4552;43.422;24.592;2023-07-22T01:27:47;99727.84;;;24.39;92.24
9035;BME280;4552;43.422;24.592;2023-07-22T01:30:14;99739.47;;;24.15;93.40
9035;BME280;4552;43.422;24.592;2023-07-22T01:42:45;99728.25;;;23.34;99.56
9035;BME280;4552;43.422;24.592;2023-07-22T01:45:14;99722.50;;;23.53;99.15
9035;BME280;4552;43.422;24.592;2023-07-22T01:57:36;99712.03;;;23.50;98.91
9035;BME280;4552;43.422;24.592;2023-07-22T02:00:06;99721.34;;;23.44;99.77
9035;BME280;4552;43.422;24.592;2023-07-22T02:02:33;99718.47;;;23.47;99.54
9035;BME280;4552;43.422;24.592;2023-07-22T02:05:00;99711.16;;;23.37;100.00
9035;BME280;4552;43.422;24.592;2023-07-22T02:07:27;99717.81;;;23.44;100.00
9035;BME280;4552;43.422;24.592;2023-07-22T02:09:55;99726.13;;;23.39;100.00
9035;BME280;4552;43.422;24.592;2023-07-22T02:12:22;99705.84;;;23.24;100.00
9035;BME280;4552;43.422;24.592;2023-07-22T02:14:49;99715.38;;;23.14;100.00
9035;BME280;4552;43.422;24.592;2023-07-22T02:55:08;99701.94;;;23.16;100.00
9035;BME280;4552;43.422;24.592;2023-07-22T02:57:36;99708.78;;;23.20;100.00
9035;BME280;4552;43.422;24.592;2023-07-22T03:00:04;99703.44;;;23.07;100.00
9035;BME280;4552;43.422;24.592;2023-07-22T03:09:16;99715.94;;;23.19;100.00
9035;BME280;4552;43.422;24.592;2023-07-22T03:11:45;99729.06;;;23.22;100.00
9035;BME280;4552;43.422;24.592;2023-07-22T03:14:12;99710.75;;;23.30;100.00
9035;BME280;4552;43.422;24.592;2023-07-22T03:16:38;99694.50;;;23.33;100.00
9035;BME280;4552;43.422;24.592;2023-07-22T03:19:05;99688.50;;;23.42;99.78
9035;BME280;4552;43.422;24.592;2023-07-22T03:21:32;99677.63;;;23.45;99.34
9035;BME280;4552;43.422;24.592;2023-07-22T03:23:59;99677.50;;;23.59;99.13
9035;BME280;4552;43.422;24.592;2023-07-22T03:26:26;99694.91;;;23.52;98.83
9035;BME280;4552;43.422;24.592;2023-07-22T03:28:54;99696.88;;;23.50;98.98
9035;BME280;4552;43.422;24.592;2023-07-22T03:31:21;99710.31;;;23.61;98.24
9035;BME280;4552;43.422;24.592;2023-07-22T03:54:00;99747.28;;;23.67;97.63
9035;BME280;4552;43.422;24.592;2023-07-22T03:56:27;99758.19;;;23.89;97.21
9035;BME280;4552;43.422;24.592;2023-07-22T03:58:54;99759.28;;;24.00;97.08
9035;BME280;4552;43.422;24.592;2023-07-22T04:01:21;99772.31;;;24.17;95.90
9035;BME280;4552;43.422;24.592;2023-07-22T04:03:48;99756.72;;;23.98;96.16
9035;BME280;4552;43.422;24.592;2023-07-22T04:06:15;99741.84;;;24.07;95.74
9035;BME280;4552;43.422;24.592;2023-07-22T04:08:42;99740.41;;;24.26;94.54
9035;BME280;4552;43.422;24.592;2023-07-22T04:11:10;99749.63;;;24.22;94.65
9035;BME280;4552;43.422;24.592;2023-07-22T04:13:39;99736.28;;;24.33;93.07
9035;BME280;4552;43.422;24.592;2023-07-22T04:16:06;99746.50;;;24.52;92.26
9035;BME280;4552;43.422;24.592;2023-07-22T04:18:33;99749.38;;;24.61;91.39
9035;BME280;4552;43.422;24.592;2023-07-22T04:21:00;99750.00;;;24.77;90.56
9035;BME280;4552;43.422;24.592;2023-07-22T04:23:27;99737.44;;;24.78;90.62
9035;BME280;4552;43.422;24.592;2023-07-22T04:25:54;99738.19;;;24.80;89.80
9035;BME280;4552;43.422;24.592;2023-07-22T04:28:22;99740.63;;;24.83;89.94
9035;BME280;4552;43.422;24.592;2023-07-22T04:30:55;99733.41;;;25.07;88.42
9035;BME280;4552;43.422;24.592;2023-07-22T04:36:48;99737.47;;;26.46;79.92
9035;BME280;4552;43.422;24.592;2023-07-22T04:39:14;99751.16;;;27.17;76.58
9035;BME280;4552;43.422;24.592;2023-07-22T04:41:41;99748.75;;;27.56;73.42
9035;BME280;4552;43.422;24.592;2023-07-22T04:44:10;99759.25;;;28.09;70.03
9035;BME280;4552;43.422;24.592;2023-07-22T04:46:36;99767.41;;;28.58;67.92
9035;BME280;4552;43.422;24.592;2023-07-22T05:07:23;99757.31;;;30.31;58.02
9035;BME280;4552;43.422;24.592;2023-07-22T05:09:50;99773.13;;;30.53;57.44
9035;BME280;4552;43.422;24.592;2023-07-22T05:12:17;99770.66;;;31.21;54.96
9035;BME280;4552;43.422;24.592;2023-07-22T05:14:45;99773.50;;;31.20;54.64
9035;BME280;4552;43.422;24.592;2023-07-22T05:17:12;99761.94;;;31.10;53.71
9035;BME280;4552;43.422;24.592;2023-07-22T05:19:41;99775.53;;;30.83;54.09
9035;BME280;4552;43.422;24.592;2023-07-22T05:22:08;99769.13;;;31.19;53.54
9035;BME280;4552;43.422;24.592;2023-07-22T05:24:37;99776.69;;;31.76;51.65
9035;BME280;4552;43.422;24.592;2023-07-22T05:27:04;99783.25;;;32.42;49.34
9035;BME280;4552;43.422;24.592;2023-07-22T05:29:31;99798.13;;;33.46;47.42
9035;BME280;4552;43.422;24.592;2023-07-22T05:31:58;99799.81;;;33.71;45.48
9035;BME280;4552;43.422;24.592;2023-07-22T05:34:25;99787.78;;;32.75;46.19
9035;BME280;4552;43.422;24.592;2023-07-22T05:36:52;99792.63;;;32.30;47.51
9035;BME280;4552;43.422;24.592;2023-07-22T05:39:19;99793.88;;;32.10;48.09
9035;BME280;4552;43.422;24.592;2023-07-22T05:41:47;99794.69;;;32.03;48.77
9035;BME280;4552;43.422;24.592;2023-07-22T05:44:14;99806.84;;;32.58;47.70
9035;BME280;4552;43.422;24.592;2023-07-22T05:47:06;99795.69;;;32.27;47.46
9035;BME280;4552;43.422;24.592;2023-07-22T05:49:34;99805.28;;;31.70;49.19
9035;BME280;4552;43.422;24.592;2023-07-22T05:52:01;99800.09;;;31.77;49.47
9035;BME280;4552;43.422;24.592;2023-07-22T05:54:28;99823.22;;;31.89;50.71
9035;BME280;4552;43.422;24.592;2023-07-22T05:56:57;99835.41;;;32.78;48.84
9035;BME280;4552;43.422;24.592;2023-07-22T05:59:24;99842.31;;;32.72;49.50
9035;BME280;4552;43.422;24.592;2023-07-22T06:01:52;99817.13;;;32.13;49.64
9035;BME280;4552;43.422;24.592;2023-07-22T06:04:19;99834.00;;;32.32;50.52
9035;BME280;4552;43.422;24.592;2023-07-22T06:06:47;99835.69;;;32.33;49.63
9035;BME280;4552;43.422;24.592;2023-07-22T06:09:21;99837.00;;;32.88;47.35
9035;BME280;4552;43.422;24.592;2023-07-22T06:11:51;99829.03;;;32.53;47.80
9035;BME280;4552;43.422;24.592;2023-07-22T06:14:30;99846.06;;;32.38;48.58
9035;BME280;4552;43.422;24.592;2023-07-22T06:16:58;99849.66;;;32.38;49.33
9035;BME280;4552;43.422;24.592;2023-07-22T06:19:25;99845.41;;;31.75;51.45
9035;BME280;4552;43.422;24.592;2023-07-22T06:21:52;99847.88;;;32.29;50.46
9035;BME280;4552;43.422;24.592;2023-07-22T06:24:20;99849.16;;;31.74;50.78
9035;BME280;4552;43.422;24.592;2023-07-22T06:26:47;99863.50;;;31.74;50.09
9035;BME280;4552;43.422;24.592;2023-07-22T06:29:14;99866.63;;;31.27;52.25
9035;BME280;4552;43.422;24.592;2023-07-22T06:31:42;99847.09;;;31.06;53.57
9035;BME280;4552;43.422;24.592;2023-07-22T06:34:10;99859.13;;;30.94;54.32
9035;BME280;4552;43.422;24.592;2023-07-22T06:36:37;99845.84;;;31.45;53.00
9035;BME280;4552;43.422;24.592;2023-07-22T06:39:04;99819.16;;;30.61;56.30
9035;BME280;4552;43.422;24.592;2023-07-22T06:41:31;99815.38;;;30.54;55.74
9035;BME280;4552;43.422;24.592;2023-07-22T06:43:58;99823.75;;;31.05;54.09
9035;BME280;4552;43.422;24.592;2023-07-22T06:46:25;99818.81;;;30.83;53.73
9035;BME280;4552;43.422;24.592;2023-07-22T07:02:20;99828.16;;;30.88;52.72
9035;BME280;4552;43.422;24.592;2023-07-22T07:11:41;99826.59;;;31.48;50.94
9035;BME280;4552;43.422;24.592;2023-07-22T07:14:08;99817.00;;;31.36;51.31
9035;BME280;4552;43.422;24.592;2023-07-22T07:16:35;99818.28;;;31.84;48.49
9035;BME280;4552;43.422;24.592;2023-07-22T07:19:03;99806.97;;;31.71;46.99
9035;BME280;4552;43.422;24.592;2023-07-22T07:21:31;99787.75;;;31.57;46.18
9035;BME280;4552;43.422;24.592;2023-07-22T07:23:58;99786.72;;;31.58;44.46
9035;BME280;4552;43.422;24.592;2023-07-22T07:26:25;99793.00;;;31.41;42.97
9035;BME280;4552;43.422;24.592;2023-07-22T07:28:52;99795.97;;;31.30;43.89
9035;BME280;4552;43.422;24.592;2023-07-22T07:31:19;99781.94;;;31.52;42.68
9035;BME280;4552;43.422;24.592;2023-07-22T07:41:09;99771.06;;;32.21;42.25
9035;BME280;4552;43.422;24.592;2023-07-22T07:43:37;99768.41;;;31.95;42.39
9035;BME280;4552;43.422;24.592;2023-07-22T07:46:15;99772.81;;;32.30;42.39
9035;BME280;4552;43.422;24.592;2023-07-22T07:48:43;99775.88;;;32.01;41.27
9035;BME280;4552;43.422;24.592;2023-07-22T07:51:13;99772.63;;;31.72;42.00
9035;BME280;4552;43.422;24.592;2023-07-22T07:53:40;99780.44;;;31.75;41.70
9035;BME280;4552;43.422;24.592;2023-07-22T07:56:11;99765.88;;;31.76;42.22
9035;BME280;4552;43.422;24.592;2023-07-22T07:58:38;99771.97;;;31.78;41.37
9035;BME280;4552;43.422;24.592;2023-07-22T08:01:05;99764.34;;;31.73;42.15
9035;BME280;4552;43.422;24.592;2023-07-22T08:14:09;99748.78;;;32.01;40.54
9035;BME280;4552;43.422;24.592;2023-07-22T08:16:36;99743.06;;;32.04;40.23
9035;BME280;4552;43.422;24.592;2023-07-22T08:19:03;99754.97;;;32.11;40.81
9035;BME280;4552;43.422;24.592;2023-07-22T08:21:31;99752.28;;;32.19;40.91
9035;BME280;4552;43.422;24.592;2023-07-22T08:23:58;99755.34;;;32.24;40.61
9035;BME280;4552;43.422;24.592;2023-07-22T08:26:25;99761.69;;;32.07;39.16
9035;BME280;4552;43.422;24.592;2023-07-22T08:28:53;99736.75;;;32.29;39.90
9035;BME280;4552;43.422;24.592;2023-07-22T08:31:21;99749.72;;;32.51;38.70
9035;BME280;4552;43.422;24.592;2023-07-22T08:33:49;99743.69;;;32.73;39.34
9035;BME280;4552;43.422;24.592;2023-07-22T08:36:16;99736.97;;;32.93;38.72
9035;BME280;4552;43.422;24.592;2023-07-22T08:38:43;99743.84;;;32.72;38.24
9035;BME280;4552;43.422;24.592;2023-07-22T08:41:14;99737.06;;;32.76;38.24
9035;BME280;4552;43.422;24.592;2023-07-22T08:43:41;99728.94;;;32.76;37.26
9035;BME280;4552;43.422;24.592;2023-07-22T08:46:12;99727.75;;;32.70;36.41
9035;BME280;4552;43.422;24.592;2023-07-22T08:52:24;99739.50;;;32.87;36.91
9035;BME280;4552;43.422;24.592;2023-07-22T08:54:52;99738.53;;;33.04;36.30
9035;BME280;4552;43.422;24.592;2023-07-22T08:57:21;99740.34;;;32.95;36.19
9035;BME280;4552;43.422;24.592;2023-07-22T08:59:49;99736.31;;;32.99;36.41
9035;BME280;4552;43.422;24.592;2023-07-22T09:02:16;99746.00;;;33.18;35.96
9035;BME280;4552;43.422;24.592;2023-07-22T10:00:54;99709.94;;;34.35;33.27
9035;BME280;4552;43.422;24.592;2023-07-22T10:03:23;99703.22;;;34.23;33.71
9035;BME280;4552;43.422;24.592;2023-07-22T10:06:00;99707.47;;;34.56;33.18
9035;BME280;4552;43.422;24.592;2023-07-22T10:08:30;99708.09;;;34.43;33.27
9035;BME280;4552;43.422;24.592;2023-07-22T10:11:05;99696.34;;;34.43;33.29
9035;BME280;4552;43.422;24.592;2023-07-22T10:13:36;99698.81;;;34.22;33.47
9035;BME280;4552;43.422;24.592;2023-07-22T10:16:05;99704.84;;;34.48;33.52
9035;BME280;4552;43.422;24.592;2023-07-22T10:18:33;99702.53;;;34.21;33.35
9035;BME280;4552;43.422;24.592;2023-07-22T10:21:03;99705.94;;;34.23;33.42
9035;BME280;4552;43.422;24.592;2023-07-22T10:23:31;99699.94;;;34.35;33.79
9035;BME280;4552;43.422;24.592;2023-07-22T10:25:59;99705.81;;;34.55;33.62
9035;BME280;4552;43.422;24.592;2023-07-22T10:28:28;99688.56;;;34.40;32.60
9035;BME280;4552;43.422;24.592;2023-07-22T10:30:56;99687.59;;;34.25;34.29
9035;BME280;4552;43.422;24.592;2023-07-22T10:33:25;99702.22;;;34.54;33.58
9035;BME280;4552;43.422;24.592;2023-07-22T10:36:03;99695.28;;;34.74;33.53
9035;BME280;4552;43.422;24.592;2023-07-22T10:38:31;99692.47;;;34.98;33.50
9035;BME280;4552;43.422;24.592;2023-07-22T10:40:59;99713.22;;;35.14;33.04
9035;BME280;4552;43.422;24.592;2023-07-22T10:43:29;99705.41;;;34.66;33.67
9035;BME280;4552;43.422;24.592;2023-07-22T10:46:08;99696.69;;;34.48;33.48
9035;BME280;4552;43.422;24.592;2023-07-22T10:48:42;99703.53;;;34.28;33.92
9035;BME280;4552;43.422;24.592;2023-07-22T10:51:35;99696.69;;;34.01;33.85
9035;BME280;4552;43.422;24.592;2023-07-22T10:54:03;99698.88;;;33.98;34.78
9035;BME280;4552;43.422;24.592;2023-07-22T10:56:37;99691.84;;;34.19;34.45
9035;BME280;4552;43.422;24.592;2023-07-22T11:10:33;99682.69;;;34.81;34.59
9035;BME280;4552;43.422;24.592;2023-07-22T11:13:03;99687.53;;;35.17;34.16
9035;BME280;4552;43.422;24.592;2023-07-22T11:15:32;99672.97;;;34.79;33.54
9035;BME280;4552;43.422;24.592;2023-07-22T11:18:01;99678.47;;;35.02;33.49
9035;BME280;4552;43.422;24.592;2023-07-22T11:20:30;99689.00;;;35.42;34.07
9035;BME280;4552;43.422;24.592;2023-07-22T11:22:57;99669.88;;;35.35;32.55
9035;BME280;4552;43.422;24.592;2023-07-22T11:25:28;99679.91;;;35.12;32.55
9035;BME280;4552;43.422;24.592;2023-07-22T11:27:57;99650.81;;;34.90;33.63
9035;BME280;4552;43.422;24.592;2023-07-22T11:30:24;99671.75;;;35.12;33.35
9035;BME280;4552;43.422;24.592;2023-07-22T11:32:52;99673.84;;;35.02;33.21
9035;BME280;4552;43.422;24.592;2023-07-22T11:38:40;99649.91;;;34.97;33.01
9035;BME280;4552;43.422;24.592;2023-07-22T11:41:08;99662.53;;;35.13;32.72
9035;BME280;4552;43.422;24.592;2023-07-22T11:43:37;99662.16;;;35.16;32.74
9035;BME280;4552;43.422;24.592;2023-07-22T11:46:05;99660.13;;;35.18;32.08
9035;BME280;4552;43.422;24.592;2023-07-22T11:55:15;99666.31;;;35.27;32.42
9035;BME280;4552;43.422;24.592;2023-07-22T11:57:52;99673.72;;;35.55;32.14
9035;BME280;4552;43.422;24.592;2023-07-22T12:00:46;99671.00;;;35.41;32.28
9035;BME280;4552;43.422;24.592;2023-07-22T12:03:14;99662.38;;;35.29;31.76
9035;BME280;4552;43.422;24.592;2023-07-22T12:11:56;99656.63;;;34.87;32.97
9035;BME280;4552;43.422;24.592;2023-07-22T12:17:21;99666.31;;;35.12;34.34
9035;BME280;4552;43.422;24.592;2023-07-22T12:19:52;99656.44;;;34.88;33.70
9035;BME280;4552;43.422;24.592;2023-07-22T12:22:19;99640.16;;;34.80;34.55
9035;BME280;4552;43.422;24.592;2023-07-22T12:24:47;99635.53;;;34.66;34.61
9035;BME280;4552;43.422;24.592;2023-07-22T12:27:14;99635.34;;;34.68;34.27
9035;BME280;4552;43.422;24.592;2023-07-22T12:29:41;99641.25;;;34.94;34.32
9035;BME280;4552;43.422;24.592;2023-07-22T12:32:09;99653.56;;;34.82;34.73
9035;BME280;4552;43.422;24.592;2023-07-22T12:34:38;99636.41;;;34.59;35.82
9035;BME280;4552;43.422;24.592;2023-07-22T12:37:05;99656.06;;;34.69;35.92
9035;BME280;4552;43.422;24.592;2023-07-22T12:39:32;99648.94;;;34.68;36.23
9035;BME280;4552;43.422;24.592;2023-07-22T12:41:59;99653.94;;;34.56;36.14
9035;BME280;4552;43.422;24.592;2023-07-22T12:47:11;99643.84;;;34.65;35.92
9035;BME280;4552;43.422;24.592;2023-07-22T12:52:21;99649.22;;;34.73;36.26
9035;BME280;4552;43.422;24.592;2023-07-22T12:54:51;99642.56;;;34.53;35.74
9035;BME280;4552;43.422;24.592;2023-07-22T12:57:20;99639.84;;;34.53;37.15
9035;BME280;4552;43.422;24.592;2023-07-22T12:59:48;99634.97;;;34.71;36.56
9035;BME280;4552;43.422;24.592;2023-07-22T13:02:17;99628.53;;;34.41;37.16
9035;BME280;4552;43.422;24.592;2023-07-22T13:38:33;99617.00;;;34.31;37.41
9035;BME280;4552;43.422;24.592;2023-07-22T13:41:03;99630.91;;;34.36;36.86
9035;BME280;4552;43.422;24.592;2023-07-22T13:43:33;99617.97;;;34.16;37.57
9035;BME280;4552;43.422;24.592;2023-07-22T13:46:00;99624.31;;;34.39;38.07
9035;BME280;4552;43.422;24.592;2023-07-22T13:48:29;99609.88;;;34.30;37.06
9035;BME280;4552;43.422;24.592;2023-07-22T13:50:57;99611.09;;;34.28;38.14
9035;BME280;4552;43.422;24.592;2023-07-22T13:53:26;99620.41;;;34.33;37.77
9035;BME280;4552;43.422;24.592;2023-07-22T13:55:54;99628.13;;;34.22;37.85
9035;BME280;4552;43.422;24.592;2023-07-22T13:58:24;99621.69;;;34.15;37.57
9035;BME280;4552;43.422;24.592;2023-07-22T14:00:51;99610.47;;;34.18;37.57
9035;BME280;4552;43.422;24.592;2023-07-22T14:03:18;99619.88;;;34.38;37.59
9035;BME280;4552;43.422;24.592;2023-07-22T14:39:27;99601.19;;;34.35;36.64
9035;BME280;4552;43.422;24.592;2023-07-22T14:41:54;99605.03;;;34.18;37.19
9035;BME280;4552;43.422;24.592;2023-07-22T14:44:21;99604.31;;;34.24;37.13
9035;BME280;4552;43.422;24.592;2023-07-22T14:46:48;99616.81;;;34.41;37.10
9035;BME280;4552;43.422;24.592;2023-07-22T14:49:15;99605.75;;;34.12;37.32
9035;BME280;4552;43.422;24.592;2023-07-22T14:51:42;99604.38;;;34.16;37.24
9035;BME280;4552;43.422;24.592;2023-07-22T14:54:12;99608.97;;;34.15;37.12
9035;BME280;4552;43.422;24.592;2023-07-22T14:56:40;99608.56;;;33.96;36.90
9035;BME280;4552;43.422;24.592;2023-07-22T14:59:07;99596.16;;;33.93;37.43
9035;BME280;4552;43.422;24.592;2023-07-22T15:01:38;99600.41;;;33.96;37.41
9035;BME280;4552;43.422;24.592;2023-07-22T15:04:05;99608.81;;;34.09;37.59
9035;BME280;4552;43.422;24.592;2023-07-22T15:06:32;99603.72;;;34.14;37.03
9035;BME280;4552;43.422;24.592;2023-07-22T15:09:00;99605.16;;;33.94;36.67
9035;BME280;4552;43.422;24.592;2023-07-22T15:11:27;99595.69;;;33.90;37.53
9035;BME280;4552;43.422;24.592;2023-07-22T15:13:56;99608.84;;;34.01;36.55
9035;BME280;4552;43.422;24.592;2023-07-22T15:16:22;99608.91;;;33.93;37.12
9035;BME280;4552;43.422;24.592;2023-07-22T15:18:49;99605.84;;;33.96;37.29
9035;BME280;4552;43.422;24.592;2023-07-22T15:45:21;99640.22;;;33.65;37.92
9035;BME280;4552;43.422;24.592;2023-07-22T15:47:48;99627.16;;;33.68;38.27
9035;BME280;4552;43.422;24.592;2023-07-22T16:01:03;99611.84;;;33.75;38.43
9035;BME280;4552;43.422;24.592;2023-07-22T16:03:30;99619.72;;;34.01;38.18
9035;BME280;4552;43.422;24.592;2023-07-22T16:05:57;99613.31;;;33.86;38.38
9035;BME280;4552;43.422;24.592;2023-07-22T16:08:24;99618.75;;;33.86;38.29
9035;BME280;4552;43.422;24.592;2023-07-22T16:10:54;99633.03;;;33.96;38.33
9035;BME280;4552;43.422;24.592;2023-07-22T16:13:21;99627.94;;;33.93;37.92
9035;BME280;4552;43.422;24.592;2023-07-22T16:15:51;99614.28;;;34.01;38.47
9035;BME280;4552;43.422;24.592;2023-07-22T16:18:20;99614.34;;;33.85;38.67
9035;BME280;4552;43.422;24.592;2023-07-22T16:20:49;99619.78;;;33.85;38.23
9035;BME280;4552;43.422;24.592;2023-07-22T16:23:18;99610.47;;;33.79;38.38
9035;BME280;4552;43.422;24.592;2023-07-22T16:25:46;99611.13;;;33.81;37.86
9035;BME280;4552;43.422;24.592;2023-07-22T16:28:15;99604.91;;;33.73;38.88
9035;BME280;4552;43.422;24.592;2023-07-22T16:30:48;99602.97;;;33.42;39.23
9035;BME280;4552;43.422;24.592;2023-07-22T16:33:46;99601.91;;;33.35;39.06
9035;BME280;4552;43.422;24.592;2023-07-22T16:36:18;99605.31;;;33.37;39.01
9035;BME280;4552;43.422;24.592;2023-07-22T16:38:46;99605.88;;;33.41;38.77
9035;BME280;4552;43.422;24.592;2023-07-22T16:41:14;99611.44;;;33.31;39.16
9035;BME280;4552;43.422;24.592;2023-07-22T17:06:01;99650.50;;;32.90;40.62
9035;BME280;4552;43.422;24.592;2023-07-22T17:08:37;99654.53;;;32.86;40.79
9035;BME280;4552;43.422;24.592;2023-07-22T17:11:20;99650.50;;;32.90;40.88
9035;BME280;4552;43.422;24.592;2023-07-22T17:13:50;99645.91;;;32.83;41.10
9035;BME280;4552;43.422;24.592;2023-07-22T17:26:24;99633.66;;;32.71;41.53
9035;BME280;4552;43.422;24.592;2023-07-22T17:28:56;99651.66;;;32.72;42.27
9035;BME280;4552;43.422;24.592;2023-07-22T17:34:15;99652.47;;;32.56;42.65
9035;BME280;4552;43.422;24.592;2023-07-22T17:37:30;99659.94;;;32.62;42.50
9035;BME280;4552;43.422;24.592;2023-07-22T17:39:59;99656.53;;;32.44;42.37
9035;BME280;4552;43.422;24.592;2023-07-22T17:42:34;99663.91;;;32.34;42.39
9035;BME280;4552;43.422;24.592;2023-07-22T17:45:01;99672.03;;;32.26;43.01
9035;BME280;4552;43.422;24.592;2023-07-22T17:47:29;99664.19;;;32.15;43.29
9035;BME280;4552;43.422;24.592;2023-07-22T17:49:57;99669.66;;;32.23;42.68
9035;BME280;4552;43.422;24.592;2023-07-22T17:52:24;99654.06;;;32.17;43.29
9035;BME280;4552;43.422;24.592;2023-07-22T17:54:54;99665.31;;;32.38;42.93
9035;BME280;4552;43.422;24.592;2023-07-22T17:57:26;99648.03;;;32.39;43.24
9035;BME280;4552;43.422;24.592;2023-07-22T18:06:55;99665.66;;;32.35;43.88
9035;BME280;4552;43.422;24.592;2023-07-22T18:09:25;99659.13;;;32.20;43.67
9035;BME280;4552;43.422;24.592;2023-07-22T18:11:57;99677.13;;;32.29;44.76
9035;BME280;4552;43.422;24.592;2023-07-22T18:14:27;99673.50;;;32.13;45.26
9035;BME280;4552;43.422;24.592;2023-07-22T18:16:55;99660.09;;;32.03;44.80
9035;BME280;4552;43.422;24.592;2023-07-22T18:19:22;99671.09;;;31.76;45.16
9035;BME280;4552;43.422;24.592;2023-07-22T18:22:08;99680.19;;;31.67;45.96
9035;BME280;4552;43.422;24.592;2023-07-22T18:24:49;99676.97;;;31.71;45.61
9035;BME280;4552;43.422;24.592;2023-07-22T18:27:23;99688.28;;;31.59;47.05
9035;BME280;4552;43.422;24.592;2023-07-22T18:30:16;99683.75;;;31.42;47.08
9035;BME280;4552;43.422;24.592;2023-07-22T18:32:43;99681.69;;;31.36;47.46
9035;BME280;4552;43.422;24.592;2023-07-22T18:35:13;99705.94;;;31.28;47.51
9035;BME280;4552;43.422;24.592;2023-07-22T18:37:41;99717.22;;;31.41;47.05
9035;BME280;4552;43.422;24.592;2023-07-22T18:40:09;99710.31;;;31.21;47.20
9035;BME280;4552;43.422;24.592;2023-07-22T18:42:37;99722.44;;;31.34;47.11
9035;BME280;4552;43.422;24.592;2023-07-22T18:45:05;99703.41;;;31.26;48.45
9035;BME280;4552;43.422;24.592;2023-07-22T18:47:35;99697.31;;;31.07;48.88
9035;BME280;4552;43.422;24.592;2023-07-22T18:50:16;99695.91;;;30.68;49.32
9035;BME280;4552;43.422;24.592;2023-07-22T18:52:45;99705.56;;;30.70;50.06
9035;BME280;4552;43.422;24.592;2023-07-22T18:55:12;99705.50;;;30.80;48.82
9035;BME280;4552;43.422;24.592;2023-07-22T18:57:40;99676.63;;;30.80;49.69
9035;BME280;4552;43.422;24.592;2023-07-22T19:10:17;99684.47;;;30.74;49.24
9035;BME280;4552;43.422;24.592;2023-07-22T19:12:44;99661.16;;;30.73;49.46
9035;BME280;4552;43.422;24.592;2023-07-22T19:22:23;99607.81;;;30.75;50.15
9035;BME280;4552;43.422;24.592;2023-07-22T19:24:50;99617.97;;;30.63;50.89
9035;BME280;4552;43.422;24.592;2023-07-22T19:27:19;99603.69;;;30.36;51.68
9035;BME280;4552;43.422;24.592;2023-07-22T19:57:27;99615.22;;;28.91;58.72
9035;BME280;4552;43.422;24.592;2023-07-22T20:02:49;99648.84;;;28.78;60.30
9035;BME280;4552;43.422;24.592;2023-07-22T20:05:39;99646.44;;;28.75;60.34
9035;BME280;4552;43.422;24.592;2023-07-22T20:08:39;99662.19;;;28.60;60.67
9035;BME280;4552;43.422;24.592;2023-07-22T20:11:07;99658.09;;;28.65;60.11
9035;BME280;4552;43.422;24.592;2023-07-22T20:13:36;99682.88;;;28.69;60.21
9035;BME280;4552;43.422;24.592;2023-07-22T20:16:04;99662.75;;;28.63;60.72
9035;BME280;4552;43.422;24.592;2023-07-22T20:18:33;99657.78;;;28.59;60.87
9035;BME280;4552;43.422;24.592;2023-07-22T20:21:04;99676.06;;;28.84;60.20
9035;BME280;4552;43.422;24.592;2023-07-22T20:23:31;99667.00;;;28.85;59.64
9035;BME280;4552;43.422;24.592;2023-07-22T20:28:36;99669.84;;;28.84;60.10
9035;BME280;4552;43.422;24.592;2023-07-22T20:38:28;99660.03;;;29.02;59.42
9035;BME280;4552;43.422;24.592;2023-07-22T20:41:12;99667.25;;;29.01;60.49
9035;BME280;4552;43.422;24.592;2023-07-22T20:43:47;99640.47;;;28.71;61.04
9035;BME280;4552;43.422;24.592;2023-07-22T20:52:20;99666.72;;;28.69;62.16
9035;BME280;4552;43.422;24.592;2023-07-22T20:54:48;99687.13;;;28.91;61.46
9035;BME280;4552;43.422;24.592;2023-07-22T20:57:26;99685.75;;;28.96;61.79
9035;BME280;4552;43.422;24.592;2023-07-22T21:13:18;99670.69;;;28.55;62.29
9035;BME280;4552;43.422;24.592;2023-07-22T21:24:59;99679.28;;;27.91;65.74
9035;BME280;4552;43.422;24.592;2023-07-22T21:27:50;99695.34;;;27.72;67.54
9035;BME280;4552;43.422;24.592;2023-07-22T21:30:19;99707.50;;;27.66;68.23
9035;BME280;4552;43.422;24.592;2023-07-22T21:32:46;99720.53;;;27.71;67.63
9035;BME280;4552;43.422;24.592;2023-07-22T21:35:13;99724.59;;;27.65;68.25
9035;BME280;4552;43.422;24.592;2023-07-22T21:37:41;99708.66;;;27.53;68.97
9035;BME280;4552;43.422;24.592;2023-07-22T21:40:08;99722.44;;;27.59;68.90
9035;BME280;4552;43.422;24.592;2023-07-22T21:42:38;99740.94;;;27.73;68.39
9035;BME280;4552;43.422;24.592;2023-07-22T21:45:12;99728.88;;;27.68;68.57
9035;BME280;4552;43.422;24.592;2023-07-22T21:47:41;99734.81;;;27.62;69.64
9035;BME280;4552;43.422;24.592;2023-07-22T21:50:09;99733.69;;;27.44;71.17
9035;BME280;4552;43.422;24.592;2023-07-22T21:52:36;99723.31;;;27.60;71.69
9035;BME280;4552;43.422;24.592;2023-07-22T21:55:03;99732.09;;;27.62;71.65
9035;BME280;4552;43.422;24.592;2023-07-22T21:57:31;99738.25;;;27.53;73.50
9035;BME280;4552;43.422;24.592;2023-07-22T21:59:58;99754.31;;;27.23;79.92
9035;BME280;4552;43.422;24.592;2023-07-22T22:02:24;99762.31;;;26.70;85.10
9035;BME280;4552;43.422;24.592;2023-07-22T22:04:53;99781.06;;;26.17;92.22
9035;BME280;4552;43.422;24.592;2023-07-22T22:07:20;99811.97;;;25.66;94.76
9035;BME280;4552;43.422;24.592;2023-07-22T22:09:47;99834.28;;;25.19;100.00